Time;durP1;ratioP1;P1;durP2;ratioP2;P2;SDS_P1;SDS_P2;PMS_P1;PMS_P2;Temp;Humidity;BMP_temperature;BMP_pressure;BME280_temperature;BME280_humidity;BME280_pressure;Samples;Min_cycle;Max_cycle;Signal;HPM_P1;HPM_P2
2023/01/23 00:01:49;;;;;;;0.30;0.30;;;;;;;17.79;41.70;102968.81;5134122;27;20282;-46
2023/01/23 00:04:15;;;;;;;0.40;0.40;;;;;;;17.79;41.59;102974.34;5110629;28;20502;-47
2023/01/23 00:06:41;;;;;;;0.40;0.40;;;;;;;17.79;41.53;102974.34;5133582;27;20050;-46
2023/01/23 00:09:07;;;;;;;0.30;0.30;;;;;;;17.79;41.70;102967.97;5114391;27;20051;-46
2023/01/23 00:11:33;;;;;;;0.30;0.30;;;;;;;17.78;41.69;102971.78;5114256;27;20049;-47
2023/01/23 00:14:00;;;;;;;0.73;0.40;;;;;;;17.78;41.78;102969.88;5114312;27;20469;-45
2023/01/23 00:16:28;;;;;;;0.30;0.30;;;;;;;17.79;41.69;102973.50;5104829;27;20087;-46
2023/01/23 00:18:54;;;;;;;0.30;0.30;;;;;;;17.79;41.73;102973.50;5113444;27;20070;-46
2023/01/23 00:21:23;;;;;;;0.30;0.30;;;;;;;17.79;41.78;102968.81;5128206;27;20047;-46
2023/01/23 00:23:52;;;;;;;0.30;0.30;;;;;;;17.79;41.89;102968.81;5090117;28;20479;-47
2023/01/23 00:26:21;;;;;;;0.40;0.40;;;;;;;17.78;41.62;102967.13;5118328;27;20074;-46
2023/01/23 00:28:47;;;;;;;0.40;0.40;;;;;;;17.79;41.90;102970.75;5131166;27;20076;-46
2023/01/23 00:31:15;;;;;;;0.40;0.40;;;;;;;17.79;41.75;102974.34;5130750;27;20051;-46
2023/01/23 00:33:42;;;;;;;0.30;0.30;;;;;;;17.79;41.78;102967.97;5131292;27;20057;-46
2023/01/23 00:36:09;;;;;;;0.30;0.30;;;;;;;17.78;41.76;102967.13;5149573;27;20061;-46
2023/01/23 00:38:35;;;;;;;0.40;0.40;;;;;;;17.79;41.69;102963.31;5130941;27;20043;-47
2023/01/23 00:41:01;;;;;;;0.40;0.40;;;;;;;17.78;41.73;102961.59;5149378;27;20449;-46
2023/01/23 00:43:27;;;;;;;0.40;0.40;;;;;;;17.79;41.72;102954.22;5130856;27;20058;-48
2023/01/23 00:45:52;;;;;;;0.40;0.40;;;;;;;17.78;41.65;102964.34;5130911;27;20043;-46
2023/01/23 00:48:18;;;;;;;0.30;0.30;;;;;;;17.78;41.82;102969.03;5129541;27;20482;-46
2023/01/23 00:50:44;;;;;;;0.30;0.30;;;;;;;17.77;41.68;102962.69;5151137;27;20047;-46
2023/01/23 00:53:09;;;;;;;0.40;0.40;;;;;;;17.78;41.73;102961.59;5152824;27;20111;-46
2023/01/23 00:55:35;;;;;;;0.30;0.30;;;;;;;17.79;41.68;102959.72;5152497;27;20043;-46
2023/01/23 00:58:00;;;;;;;0.30;0.30;;;;;;;17.78;41.89;102969.88;5152800;27;20064;-46
2023/01/23 01:00:26;;;;;;;0.35;0.35;;;;;;;17.79;41.69;102960.56;5144842;27;20035;-47
2023/01/23 01:02:52;;;;;;;0.40;0.40;;;;;;;17.78;41.83;102967.13;5110898;28;20044;-46
2023/01/23 01:05:17;;;;;;;0.35;0.35;;;;;;;17.78;41.71;102969.03;5123407;27;20047;-46
2023/01/23 01:07:44;;;;;;;0.30;0.30;;;;;;;17.78;41.63;102978.13;5152215;27;20419;-46
2023/01/23 01:10:10;;;;;;;0.30;0.30;;;;;;;17.78;41.70;102972.63;5134027;27;20051;-48
2023/01/23 01:12:36;;;;;;;0.40;0.40;;;;;;;17.79;41.76;102974.34;5134128;27;20053;-46
2023/01/23 01:15:03;;;;;;;0.30;0.30;;;;;;;17.78;41.79;102980.91;5152424;27;20043;-46
2023/01/23 01:17:28;;;;;;;0.30;0.30;;;;;;;17.79;42.12;102981.75;5152329;27;20047;-46
2023/01/23 01:19:54;;;;;;;0.30;0.30;;;;;;;17.78;41.71;102986.41;5152641;27;20058;-46
2023/01/23 01:22:20;;;;;;;0.30;0.30;;;;;;;17.78;41.58;102991.91;5133719;27;20413;-47
2023/01/23 01:24:45;;;;;;;0.30;0.30;;;;;;;17.79;41.67;102990.03;5133428;27;20046;-46
2023/01/23 01:27:11;;;;;;;0.30;0.30;;;;;;;17.77;41.72;102987.47;5130472;27;20047;-46
2023/01/23 01:29:37;;;;;;;0.30;0.30;;;;;;;17.79;41.73;102998.31;5131773;28;20058;-46
2023/01/23 01:32:02;;;;;;;0.30;0.30;;;;;;;17.77;41.75;102995.75;5121273;28;20047;-46
2023/01/23 01:34:28;;;;;;;0.30;0.30;;;;;;;17.78;41.63;102994.69;5111107;28;20047;-45
2023/01/23 01:36:54;;;;;;;0.30;0.30;;;;;;;17.79;41.95;102995.56;5150320;27;20122;-46
2023/01/23 01:39:20;;;;;;;0.30;0.30;;;;;;;17.78;41.80;102985.56;5151783;27;20053;-47
2023/01/23 01:41:45;;;;;;;0.30;0.30;;;;;;;17.77;41.70;102990.22;5151952;27;20051;-47
2023/01/23 01:44:21;;;;;;;0.30;0.30;;;;;;;17.78;41.89;102988.31;5132073;27;20430;-46
2023/01/23 01:46:47;;;;;;;0.30;0.30;;;;;;;17.79;41.82;102995.56;5134477;27;20096;-47
2023/01/23 01:49:19;;;;;;;0.40;0.40;;;;;;;17.78;41.67;102988.31;5133559;27;20056;-46
2023/01/23 01:51:50;;;;;;;0.30;0.30;;;;;;;17.78;41.73;102986.41;5151600;27;20051;-46
2023/01/23 01:54:27;;;;;;;0.30;0.30;;;;;;;17.78;41.72;102985.56;5133628;27;20047;-46
2023/01/23 01:57:04;;;;;;;0.30;0.30;;;;;;;17.77;41.87;102992.16;5133947;27;20177;-46
2023/01/23 01:59:34;;;;;;;0.30;0.30;;;;;;;17.77;41.68;102998.50;5151680;27;20447;-46
2023/01/23 02:02:05;;;;;;;0.32;0.32;;;;;;;17.78;41.95;103004.84;5116158;28;20082;-46
2023/01/23 02:04:32;;;;;;;0.30;0.30;;;;;;;17.79;41.76;102999.16;5130853;28;20047;-47
2023/01/23 02:07:02;;;;;;;0.30;0.30;;;;;;;17.78;41.73;102996.59;5137708;27;20070;-47
2023/01/23 02:09:32;;;;;;;0.38;0.38;;;;;;;17.78;41.79;103002.94;5151527;27;20054;-46
2023/01/23 02:11:59;;;;;;;0.30;0.30;;;;;;;17.78;41.78;103000.19;5151602;27;20054;-46
2023/01/23 02:14:24;;;;;;;0.30;0.30;;;;;;;17.77;41.79;103004.00;5151708;27;20070;-46
2023/01/23 02:16:51;;;;;;;0.30;0.30;;;;;;;17.78;41.77;103005.69;5151329;27;20341;-46
2023/01/23 02:19:56;;;;;;;0.30;0.30;;;;;;;17.79;41.76;103014.84;5151672;27;20097;-46
2023/01/23 02:22:31;;;;;;;0.30;0.30;;;;;;;17.77;41.87;103015.03;5097574;28;20479;-46
2023/01/23 02:25:05;;;;;;;0.38;0.38;;;;;;;17.77;41.81;103011.44;5116025;27;20697;-45
2023/01/23 02:27:30;;;;;;;0.30;0.30;;;;;;;17.78;41.90;103010.38;5151287;27;20506;-46
2023/01/23 02:29:57;;;;;;;0.40;0.40;;;;;;;17.77;41.88;103016.97;5151532;27;20053;-46
2023/01/23 02:32:24;;;;;;;0.30;0.30;;;;;;;17.77;41.89;103017.78;5151169;27;20184;-46
2023/01/23 02:34:51;;;;;;;0.30;0.30;;;;;;;17.77;41.83;103012.28;5151292;27;20042;-46
2023/01/23 02:37:18;;;;;;;0.20;0.20;;;;;;;17.78;41.78;103015.88;5132476;27;20069;-47
2023/01/23 02:39:44;;;;;;;0.30;0.30;;;;;;;17.78;41.65;103015.88;5132278;27;20042;-45
2023/01/23 02:42:10;;;;;;;0.30;0.30;;;;;;;17.78;41.83;103010.38;5150889;27;20051;-46
2023/01/23 02:44:36;;;;;;;0.30;0.30;;;;;;;17.77;41.77;103005.94;5132505;27;20043;-47
2023/01/23 02:47:06;;;;;;;0.40;0.40;;;;;;;17.78;41.90;102999.34;5123738;27;20505;-48
2023/01/23 02:49:32;;;;;;;0.30;0.30;;;;;;;17.77;41.73;102995.75;5116276;27;20406;-47
2023/01/23 02:51:58;;;;;;;0.30;0.30;;;;;;;17.77;41.73;102990.22;5132291;27;20057;-46
2023/01/23 02:54:24;;;;;;;0.30;0.30;;;;;;;17.78;41.78;102980.91;5150835;27;20054;-46
2023/01/23 02:56:50;;;;;;;0.30;0.30;;;;;;;17.78;41.87;102980.91;5150331;27;20395;-46
2023/01/23 03:02:04;;;;;;;0.30;0.30;;;;;;;17.77;41.86;102970.94;5117423;28;20487;-46
2023/01/23 03:04:29;;;;;;;0.30;0.30;;;;;;;17.77;41.86;102973.69;5129967;28;20057;-47
2023/01/23 03:06:55;;;;;;;0.30;0.30;;;;;;;17.77;41.90;102979.22;5149686;27;20050;-47
2023/01/23 03:09:21;;;;;;;0.30;0.30;;;;;;;17.77;41.89;102968.19;5150516;27;20512;-46
2023/01/23 03:11:47;;;;;;;0.40;0.40;;;;;;;17.78;41.86;102971.78;5132157;27;20095;-47
2023/01/23 03:14:15;;;;;;;0.38;0.38;;;;;;;17.78;41.89;102975.38;5150110;27;20458;-47
2023/01/23 03:16:41;;;;;;;0.30;0.30;;;;;;;17.77;41.73;102976.47;5131645;27;20084;-46
2023/01/23 03:19:08;;;;;;;0.30;0.30;;;;;;;17.77;41.83;102981.97;5150979;27;20049;-47
2023/01/23 03:21:36;;;;;;;0.35;0.35;;;;;;;17.78;41.82;102986.41;5115153;27;20047;-46
2023/01/23 03:24:04;;;;;;;0.30;0.30;;;;;;;17.79;41.72;102981.75;5131637;27;20131;-46
2023/01/23 03:26:30;;;;;;;0.20;0.20;;;;;;;17.78;41.85;102991.06;5131338;27;20279;-46
2023/01/23 03:31:41;;;;;;;0.30;0.30;;;;;;;17.77;41.87;103000.41;5134728;27;20050;-47
2023/01/23 03:34:07;;;;;;;0.40;0.40;;;;;;;17.77;41.81;102995.75;5150370;27;20383;-47
2023/01/23 03:36:36;;;;;;;0.40;0.40;;;;;;;17.77;41.81;102998.50;5150594;27;20110;-47
2023/01/23 03:41:50;;;;;;;0.20;0.20;;;;;;;17.79;41.79;103012.09;5149293;27;20046;-47
2023/01/23 03:44:17;;;;;;;0.30;0.30;;;;;;;17.77;41.69;103001.25;5150147;27;20119;-46
2023/01/23 03:46:44;;;;;;;0.30;0.30;;;;;;;17.78;41.97;103016.72;5130942;27;20035;-46
2023/01/23 03:49:10;;;;;;;0.40;0.40;;;;;;;17.76;41.65;103007.84;5131643;27;20535;-46
2023/01/23 03:51:36;;;;;;;0.30;0.30;;;;;;;17.77;41.90;103016.97;5150364;27;20042;-47
2023/01/23 03:54:01;;;;;;;0.30;0.30;;;;;;;17.77;41.88;103011.44;5131531;27;20051;-48
2023/01/23 03:56:27;;;;;;;0.40;0.40;;;;;;;17.78;41.71;103024.16;5149506;27;20057;-47
2023/01/23 03:58:53;;;;;;;0.30;0.30;;;;;;;17.78;41.87;103032.41;5150176;27;20046;-48
2023/01/23 04:01:18;;;;;;;0.30;0.30;;;;;;;17.77;41.74;103034.34;5112168;28;20051;-48
2023/01/23 04:03:44;;;;;;;0.30;0.30;;;;;;;17.76;41.89;103029.06;5093730;28;20100;-48
2023/01/23 04:06:10;;;;;;;0.30;0.30;;;;;;;17.78;41.81;103018.63;5142484;27;20043;-47
2023/01/23 04:08:35;;;;;;;0.30;0.30;;;;;;;17.77;41.88;103026.06;5131094;27;20042;-47
2023/01/23 04:11:04;;;;;;;0.30;0.30;;;;;;;17.77;41.82;103025.22;5149892;27;20075;-46
2023/01/23 04:13:30;;;;;;;0.30;0.30;;;;;;;17.77;41.91;103019.72;5131492;27;20055;-46
2023/01/23 04:15:56;;;;;;;0.30;0.30;;;;;;;17.77;41.92;103014.19;5114171;27;20081;-46
2023/01/23 04:18:22;;;;;;;0.30;0.30;;;;;;;17.77;41.79;103017.78;5149238;27;20046;-47
2023/01/23 04:20:47;;;;;;;0.40;0.40;;;;;;;17.77;41.86;103020.56;5131351;27;20441;-45
2023/01/23 04:23:13;;;;;;;0.40;0.40;;;;;;;17.78;41.80;103035.19;5149606;27;20088;-46
2023/01/23 04:25:39;;;;;;;0.40;0.40;;;;;;;17.78;41.87;103030.50;5150967;27;20129;-46
2023/01/23 04:28:04;;;;;;;0.40;0.40;;;;;;;17.78;41.85;103027.75;5153043;27;20422;-46
2023/01/23 04:30:30;;;;;;;0.30;0.30;;;;;;;17.77;41.77;103030.72;5153148;27;20060;-47
2023/01/23 04:32:56;;;;;;;0.30;0.30;;;;;;;17.77;41.75;103031.56;5134591;27;20051;-47
2023/01/23 04:35:21;;;;;;;0.30;0.30;;;;;;;17.78;41.82;103032.41;5153180;27;20087;-46
2023/01/23 04:37:47;;;;;;;0.40;0.40;;;;;;;17.78;41.69;103033.25;5152996;27;20516;-46
2023/01/23 04:40:13;;;;;;;0.30;0.30;;;;;;;17.77;41.81;103015.03;5134261;27;20043;-47
2023/01/23 04:42:39;;;;;;;0.38;0.38;;;;;;;17.76;41.79;103021.63;5134659;27;20486;-47
2023/01/23 04:45:07;;;;;;;0.32;0.32;;;;;;;17.78;41.83;103022.22;5148595;27;20043;-47
2023/01/23 04:47:33;;;;;;;0.30;0.30;;;;;;;17.78;41.70;103021.41;5114466;28;20043;-45
2023/01/23 04:49:59;;;;;;;0.30;0.30;;;;;;;17.78;41.81;103021.41;5113852;28;20079;-48
2023/01/23 04:52:24;;;;;;;0.38;0.38;;;;;;;17.77;42.11;103020.56;5113571;28;20411;-47
2023/01/23 04:54:50;;;;;;;0.30;0.30;;;;;;;17.77;41.87;103015.03;5133919;27;20537;-47
2023/01/23 04:57:16;;;;;;;0.30;0.30;;;;;;;17.77;41.85;103015.03;5152304;27;20051;-46
2023/01/23 04:59:41;;;;;;;0.30;0.30;;;;;;;17.77;41.79;103014.19;5152672;27;20046;-46
2023/01/23 05:02:08;;;;;;;0.40;0.40;;;;;;;17.78;41.80;103013.13;5152499;27;20110;-47
2023/01/23 05:04:34;;;;;;;0.30;0.30;;;;;;;17.77;41.86;103009.53;5152619;27;20051;-46
2023/01/23 05:06:59;;;;;;;0.30;0.30;;;;;;;17.77;41.82;103009.53;5152445;27;20077;-46
2023/01/23 05:09:25;;;;;;;0.30;0.30;;;;;;;17.77;41.88;103005.94;5134084;27;20050;-46
2023/01/23 05:11:51;;;;;;;0.30;0.30;;;;;;;17.77;41.98;102998.50;5152591;27;20057;-46
2023/01/23 05:14:16;;;;;;;0.30;0.30;;;;;;;17.77;41.80;103006.78;5152608;27;20043;-47
2023/01/23 05:16:42;;;;;;;0.30;0.30;;;;;;;17.77;41.74;103012.28;5152278;27;20047;-45
2023/01/23 05:19:08;;;;;;;0.30;0.30;;;;;;;17.78;41.83;103027.75;5152226;27;20441;-46
2023/01/23 05:21:33;;;;;;;0.30;0.30;;;;;;;17.77;41.83;103031.56;5152708;27;20047;-46
2023/01/23 05:23:59;;;;;;;0.63;0.40;;;;;;;17.77;41.81;103033.50;5151375;27;20413;-47
2023/01/23 05:26:25;;;;;;;0.30;0.30;;;;;;;17.78;41.96;103037.94;5131693;27;20058;-47
2023/01/23 05:28:50;;;;;;;0.40;0.40;;;;;;;17.77;41.96;103039.00;5152197;27;20089;-46
2023/01/23 05:31:16;;;;;;;0.30;0.30;;;;;;;17.78;41.96;103037.94;5151927;27;20051;-47
2023/01/23 05:33:42;;;;;;;0.30;0.30;;;;;;;17.77;42.05;103030.72;5152224;27;20062;-48
2023/01/23 05:36:08;;;;;;;0.30;0.30;;;;;;;17.78;41.80;103040.69;5151705;27;20505;-45
2023/01/23 05:38:34;;;;;;;0.30;0.30;;;;;;;17.77;41.94;103045.34;5151918;27;20050;-46
2023/01/23 05:40:59;;;;;;;0.30;0.30;;;;;;;17.77;42.00;103050.88;5152087;27;20149;-47
2023/01/23 05:43:25;;;;;;;0.40;0.40;;;;;;;17.77;41.91;103055.53;5151848;27;20043;-46
2023/01/23 05:45:51;;;;;;;0.30;0.30;;;;;;;17.78;41.86;103054.47;5151620;27;20406;-46
2023/01/23 05:48:16;;;;;;;0.30;0.30;;;;;;;17.77;41.88;103059.13;5150601;27;20042;-47
2023/01/23 05:50:42;;;;;;;0.30;0.30;;;;;;;17.77;41.86;103056.38;5152077;27;20050;-47
2023/01/23 05:53:08;;;;;;;0.30;0.30;;;;;;;17.77;41.87;103059.13;5151845;27;20057;-47
2023/01/23 05:55:33;;;;;;;0.30;0.30;;;;;;;17.78;42.01;103054.47;5151644;27;20451;-47
2023/01/23 05:57:59;;;;;;;0.40;0.40;;;;;;;17.77;41.86;103059.13;5149022;27;20047;-47
2023/01/23 06:00:25;;;;;;;0.30;0.30;;;;;;;17.76;41.73;103045.59;5129403;27;20057;-48
2023/01/23 06:02:50;;;;;;;0.40;0.40;;;;;;;17.77;41.94;103050.03;5129515;28;20651;-45
2023/01/23 06:05:16;;;;;;;0.30;0.30;;;;;;;17.77;41.75;103047.28;5136023;27;20051;-47
2023/01/23 06:07:42;;;;;;;0.30;0.30;;;;;;;17.76;41.98;103046.44;5151831;27;20046;-46
2023/01/23 06:10:08;;;;;;;0.40;0.40;;;;;;;17.77;41.85;103053.63;5137435;27;20043;-46
2023/01/23 06:12:35;;;;;;;0.30;0.30;;;;;;;17.76;41.81;103051.94;5130974;27;20049;-47
2023/01/23 06:15:01;;;;;;;0.30;0.30;;;;;;;17.82;42.00;103054.88;5115028;27;20050;-57
2023/01/23 06:17:26;;;;;;;0.30;0.30;;;;;;;17.83;41.91;103065.66;5149528;27;20458;-57
2023/01/23 06:19:52;;;;;;;0.30;0.30;;;;;;;17.87;41.94;103063.31;5130387;28;20051;-56
2023/01/23 06:22:18;;;;;;;0.38;0.38;;;;;;;17.88;41.86;103063.13;5129812;28;20070;-45
2023/01/23 06:24:43;;;;;;;0.30;0.30;;;;;;;17.88;41.98;103067.78;5130406;27;20410;-46
2023/01/23 06:27:09;;;;;;;0.30;0.30;;;;;;;17.87;41.99;103066.91;5141942;27;20047;-47
2023/01/23 06:29:35;;;;;;;0.40;0.40;;;;;;;17.84;41.98;103075.66;5112217;28;20043;-45
2023/01/23 06:32:01;;;;;;;0.40;0.40;;;;;;;17.85;42.03;103082.84;5093416;28;20054;-46
2023/01/23 06:34:27;;;;;;;0.32;0.32;;;;;;;17.85;42.02;103077.34;5129523;28;20194;-46
2023/01/23 06:36:52;;;;;;;0.38;0.38;;;;;;;17.85;42.02;103084.75;5136387;27;20391;-46
2023/01/23 06:39:18;;;;;;;0.30;0.30;;;;;;;17.87;42.14;103093.66;5129115;27;20047;-46
2023/01/23 06:41:44;;;;;;;0.30;0.30;;;;;;;17.86;41.80;103092.81;5151081;27;20047;-50
2023/01/23 06:44:10;;;;;;;0.30;0.30;;;;;;;17.87;41.99;103091.72;5123858;27;20051;-46
2023/01/23 06:46:36;;;;;;;0.30;0.30;;;;;;;17.86;42.11;103092.81;5125935;27;20046;-47
2023/01/23 06:49:02;;;;;;;0.30;0.30;;;;;;;17.88;41.81;103098.97;5128436;27;20102;-46
2023/01/23 06:51:31;;;;;;;0.30;0.30;;;;;;;17.88;41.93;103103.63;5107276;28;20043;-46
2023/01/23 06:53:57;;;;;;;0.32;0.32;;;;;;;17.88;41.97;103109.16;5126423;28;20488;-47
2023/01/23 06:56:23;;;;;;;0.30;0.30;;;;;;;17.88;42.06;103112.75;5136248;27;20043;-46
2023/01/23 06:58:48;;;;;;;0.30;0.30;;;;;;;17.91;41.06;103109.53;5143835;27;20478;-47
2023/01/23 07:01:16;;;;;;;0.30;0.30;;;;;;;17.94;40.26;103111.84;5100393;28;20047;-58
2023/01/23 07:03:43;;;;;;;0.30;0.30;;;;;;;17.91;39.71;103114.19;5085869;28;20067;-59
2023/01/23 07:06:13;;;;;;;0.40;0.40;;;;;;;17.94;41.01;103128.41;5097399;28;20051;-46
2023/01/23 07:08:39;;;;;;;0.30;0.30;;;;;;;17.95;40.99;103121.81;5091693;28;20051;-46
2023/01/23 07:11:05;;;;;;;0.30;0.30;;;;;;;17.94;41.10;103131.16;5101350;28;20039;-46
2023/01/23 07:13:31;;;;;;;0.30;0.30;;;;;;;17.92;41.02;103129.66;5118720;28;20116;-45
2023/01/23 07:15:57;;;;;;;0.28;0.28;;;;;;;17.92;41.54;103127.78;5087767;28;20099;-47
2023/01/23 07:18:23;;;;;;;0.30;0.30;;;;;;;17.95;41.26;103138.34;5121596;27;20039;-45
2023/01/23 07:20:49;;;;;;;0.30;0.30;;;;;;;17.94;41.31;103133.91;5118743;28;20074;-47
2023/01/23 07:23:15;;;;;;;0.30;0.30;;;;;;;17.96;41.39;103137.31;5106272;28;20050;-46
2023/01/23 07:25:41;;;;;;;0.30;0.30;;;;;;;17.96;41.39;103140.06;5120939;27;20058;-47
2023/01/23 07:28:07;;;;;;;0.38;0.38;;;;;;;17.97;41.32;103135.38;5113538;27;20047;-47
2023/01/23 07:30:33;;;;;;;0.30;0.30;;;;;;;17.98;41.29;103139.84;5117368;28;20039;-46
2023/01/23 07:32:59;;;;;;;0.20;0.20;;;;;;;17.98;41.37;103153.63;5101571;28;20651;-47
2023/01/23 07:35:25;;;;;;;0.30;0.30;;;;;;;17.97;41.47;103144.50;5119709;27;20039;-47
2023/01/23 07:37:51;;;;;;;0.30;0.30;;;;;;;17.99;41.44;103147.88;5119210;27;20139;-47
2023/01/23 07:40:17;;;;;;;0.30;0.30;;;;;;;17.98;41.53;103157.22;5108913;27;20703;-46
2023/01/23 07:42:43;;;;;;;0.30;0.30;;;;;;;17.98;41.54;103154.47;5111144;27;20170;-46
2023/01/23 07:45:10;;;;;;;0.30;0.30;;;;;;;17.73;38.67;103162.56;5106116;27;20079;-58
2023/01/23 07:47:38;;;;;;;0.30;0.30;;;;;;;17.88;39.08;103165.13;5090029;28;20071;-59
2023/01/23 07:50:05;;;;;;;0.20;0.20;;;;;;;17.94;40.12;103172.50;5099980;28;20067;-47
2023/01/23 07:52:31;;;;;;;0.30;0.30;;;;;;;17.99;41.02;103172.69;5119052;28;20798;-47
2023/01/23 07:54:56;;;;;;;0.30;0.30;;;;;;;18.00;41.10;103163.38;5114930;27;20582;-46
2023/01/23 07:57:22;;;;;;;0.30;0.30;;;;;;;18.01;41.01;103162.31;5112930;27;20046;-45
2023/01/23 07:59:48;;;;;;;0.30;0.30;;;;;;;18.01;41.21;103169.72;5112742;27;20050;-47
2023/01/23 08:02:13;;;;;;;0.30;0.30;;;;;;;18.01;41.19;103164.22;5110692;27;20132;-48
2023/01/23 08:04:39;;;;;;;0.30;0.30;;;;;;;18.00;41.30;103165.25;5105257;27;20050;-46
2023/01/23 08:07:05;;;;;;;0.30;0.30;;;;;;;18.02;41.24;103169.50;5101601;27;20442;-46
2023/01/23 08:09:31;;;;;;;0.38;0.38;;;;;;;18.02;40.43;103174.19;5104970;28;20072;-57
2023/01/23 08:11:56;;;;;;;0.40;0.40;;;;;;;18.02;40.17;103165.91;5104585;28;20180;-57
2023/01/23 08:14:22;;;;;;;0.30;0.30;;;;;;;18.07;41.17;103168.00;5110156;27;20406;-58
2023/01/23 08:16:50;;;;;;;0.20;0.20;;;;;;;18.06;41.34;103161.66;5116075;27;20107;-58
2023/01/23 08:19:16;;;;;;;0.20;0.20;;;;;;;18.04;41.64;103159.09;5081929;28;20059;-58
2023/01/23 08:21:42;;;;;;;0.35;0.35;;;;;;;18.05;41.49;103155.28;5099905;28;20119;-58
2023/01/23 08:24:10;;;;;;;0.30;0.30;;;;;;;18.05;41.44;103151.69;5115095;27;20575;-58
2023/01/23 08:26:35;;;;;;;0.40;0.40;;;;;;;18.03;41.51;103159.31;5110238;27;20547;-57
2023/01/23 08:29:01;;;;;;;0.30;0.30;;;;;;;18.05;41.63;103151.69;5119322;28;20095;-58
2023/01/23 08:31:27;;;;;;;0.30;0.30;;;;;;;18.09;41.55;103154.81;5124524;28;20054;-46
2023/01/23 08:33:53;;;;;;;0.30;0.30;;;;;;;18.11;41.57;103164.59;5124834;28;20047;-49
2023/01/23 08:36:18;;;;;;;0.30;0.30;;;;;;;18.10;41.73;103162.06;5125193;27;20394;-46
2023/01/23 08:38:44;;;;;;;0.30;0.30;;;;;;;18.10;41.72;103171.16;5120535;27;20043;-48
2023/01/23 08:41:10;;;;;;;0.30;0.30;;;;;;;18.11;41.71;103175.63;5122731;28;20151;-57
2023/01/23 08:43:37;;;;;;;0.30;0.30;;;;;;;18.18;41.64;103187.47;5120583;27;20075;-51
2023/01/23 08:46:03;;;;;;;0.30;0.30;;;;;;;18.20;41.67;103182.56;5105783;28;20074;-46
2023/01/23 08:48:29;;;;;;;0.30;0.30;;;;;;;18.25;42.30;103181.91;5122623;27;20593;-58
2023/01/23 08:51:00;;;;;;;0.30;0.30;;;;;;;18.24;42.09;103186.56;5119998;27;20498;-46
2023/01/23 08:53:26;;;;;;;0.30;0.30;;;;;;;18.23;41.86;103184.91;5117784;27;20135;-47
2023/01/23 08:55:52;;;;;;;0.30;0.30;;;;;;;18.23;41.49;103189.56;5119594;27;20043;-56
2023/01/23 08:58:18;;;;;;;0.30;0.30;;;;;;;18.23;42.00;103186.81;5124740;27;20070;-47
2023/01/23 09:00:44;;;;;;;0.30;0.30;;;;;;;18.23;42.04;103190.41;5122557;28;20039;-47
2023/01/23 09:03:10;;;;;;;0.30;0.30;;;;;;;18.23;42.04;103190.41;5120322;28;20062;-46
2023/01/23 09:05:36;;;;;;;0.30;0.30;;;;;;;18.20;42.06;103188.09;5125040;27;20079;-48
2023/01/23 09:08:02;;;;;;;0.30;0.30;;;;;;;18.17;40.20;103194.03;5123274;27;20374;-56
2023/01/23 09:10:28;;;;;;;0.30;0.30;;;;;;;18.15;40.88;103193.41;5111863;27;20051;-46
2023/01/23 09:12:54;;;;;;;0.30;0.30;;;;;;;18.20;41.75;103190.00;5112194;27;21012;-48
2023/01/23 09:15:21;;;;;;;0.30;0.30;;;;;;;18.20;41.84;103190.00;5106014;27;20545;-50
2023/01/23 09:17:47;;;;;;;0.32;0.32;;;;;;;18.19;41.77;103197.44;5098797;27;20123;-47
2023/01/23 09:20:14;;;;;;;0.30;0.30;;;;;;;18.20;42.01;103198.28;5121939;27;20170;-47
2023/01/23 09:22:40;;;;;;;0.30;0.30;;;;;;;18.19;42.01;103200.19;5092691;28;20051;-49
2023/01/23 09:25:06;;;;;;;0.30;0.30;;;;;;;18.19;41.99;103202.09;5102857;27;20215;-46
2023/01/23 09:27:32;;;;;;;0.30;0.30;;;;;;;18.19;42.05;103197.44;5102817;27;20131;-47
2023/01/23 09:29:58;;;;;;;0.30;0.30;;;;;;;18.21;41.99;103195.28;5088417;27;20074;-57
2023/01/23 09:32:23;;;;;;;0.30;0.30;;;;;;;18.23;42.14;103206.13;5119151;27;20081;-48
2023/01/23 09:34:49;;;;;;;0.90;0.40;;;;;;;18.30;42.00;103213.28;5111090;27;20099;-47
2023/01/23 09:37:16;;;;;;;0.30;0.30;;;;;;;18.32;42.37;103206.72;5105740;27;20067;-46
2023/01/23 09:39:42;;;;;;;0.30;0.30;;;;;;;18.29;42.29;103200.56;5115333;28;20109;-46
2023/01/23 09:42:30;;;;;;;0.30;0.30;;;;;;;18.27;42.55;103199.94;5114153;27;20098;-47
2023/01/23 09:45:00;;;;;;;0.20;0.20;;;;;;;18.27;42.99;103202.69;5115496;28;20495;-47
2023/01/23 09:47:33;;;;;;;0.30;0.30;;;;;;;18.32;42.63;103210.31;5126879;27;20476;-60
2023/01/23 09:50:01;;;;;;;0.30;0.30;;;;;;;18.32;42.60;103213.06;5104036;28;20069;-48
2023/01/23 09:52:33;;;;;;;0.40;0.40;;;;;;;18.32;42.55;103209.47;5073039;27;20052;-47
2023/01/23 09:55:03;;;;;;;0.30;0.30;;;;;;;18.28;42.31;103212.66;5106093;27;20079;-46
2023/01/23 09:57:34;;;;;;;0.30;0.30;;;;;;;18.28;42.53;103211.81;5077762;27;21339;-48
2023/01/23 10:00:06;;;;;;;0.30;0.30;;;;;;;18.31;42.70;103216.91;5075241;28;20044;-58
2023/01/23 10:02:32;;;;;;;0.30;0.30;;;;;;;18.32;42.50;103213.06;5097160;27;20343;-48
2023/01/23 10:05:00;;;;;;;0.30;0.30;;;;;;;18.34;42.48;103210.91;5091155;27;21371;-46
2023/01/23 10:08:06;;;;;;;0.20;0.20;;;;;;;18.32;42.42;103214.97;5088410;28;20066;-48
2023/01/23 10:10:53;;;;;;;0.30;0.30;;;;;;;18.29;42.61;103211.59;5086661;27;20118;-48
2023/01/23 10:13:48;;;;;;;0.30;0.30;;;;;;;18.30;42.53;103217.94;5083923;27;20048;-48
2023/01/23 10:16:41;;;;;;;0.30;0.30;;;;;;;18.30;42.61;103215.19;5098107;28;20090;-47
2023/01/23 10:19:34;;;;;;;0.30;0.30;;;;;;;18.30;42.55;103207.75;5086504;27;20075;-49
2023/01/23 10:22:03;;;;;;;0.30;0.30;;;;;;;18.29;42.36;103214.34;5101252;27;20510;-47
2023/01/23 10:24:49;;;;;;;0.20;0.20;;;;;;;18.30;42.75;103218.78;5087338;28;20093;-48
2023/01/23 10:27:22;;;;;;;0.30;0.30;;;;;;;18.32;42.70;103217.75;5117815;27;20052;-47
2023/01/23 10:29:54;;;;;;;0.30;0.30;;;;;;;18.30;42.54;103212.44;5081642;27;20051;-48
2023/01/23 10:32:24;;;;;;;0.30;0.30;;;;;;;18.31;42.58;103200.34;5083154;28;20086;-48
2023/01/23 10:35:13;;;;;;;0.30;0.30;;;;;;;18.33;42.68;103200.13;5085497;27;20445;-48
2023/01/23 10:37:44;;;;;;;0.30;0.30;;;;;;;18.32;42.69;103206.72;5094073;28;20135;-48
2023/01/23 10:40:14;;;;;;;0.30;0.30;;;;;;;18.16;38.49;103205.28;5101647;27;20466;-57
2023/01/23 10:42:40;;;;;;;0.30;0.30;;;;;;;18.17;39.83;103207.81;5087443;27;20511;-59
2023/01/23 10:45:13;;;;;;;0.30;0.30;;;;;;;18.27;41.54;103208.22;5094989;27;20106;-46
2023/01/23 10:47:45;;;;;;;0.30;0.30;;;;;;;18.30;41.87;103206.91;5101908;28;20502;-47
2023/01/23 10:50:33;;;;;;;0.20;0.20;;;;;;;18.31;41.96;103216.91;5093182;28;20399;-48
2023/01/23 10:53:09;;;;;;;0.20;0.20;;;;;;;18.32;41.93;103210.31;5115346;27;20498;-47
2023/01/23 10:55:35;;;;;;;0.30;0.30;;;;;;;18.33;41.89;103213.91;5100672;28;20074;-47
2023/01/23 10:58:02;;;;;;;0.30;0.30;;;;;;;18.30;42.07;103210.50;5111742;27;20104;-46
2023/01/23 11:00:48;;;;;;;0.30;0.30;;;;;;;18.32;41.95;103209.47;5097244;28;20551;-46
2023/01/23 11:03:25;;;;;;;0.30;0.30;;;;;;;18.32;42.20;103215.81;5099973;28;20043;-47
2023/01/23 11:06:03;;;;;;;0.22;0.22;;;;;;;18.32;42.04;103210.31;5080941;28;20366;-46
2023/01/23 11:08:35;;;;;;;0.40;0.40;;;;;;;18.33;42.10;103208.41;5103239;28;20100;-47
2023/01/23 11:11:18;;;;;;;0.30;0.30;;;;;;;18.34;42.15;103215.59;5091815;28;20078;-47
2023/01/23 11:13:46;;;;;;;0.30;0.30;;;;;;;18.34;42.29;103204.56;5126692;27;20092;-48
2023/01/23 11:16:14;;;;;;;0.25;0.25;;;;;;;18.34;42.07;103202.66;5095920;28;20047;-49
2023/01/23 11:18:42;;;;;;;0.30;0.30;;;;;;;18.34;42.17;103201.81;5118931;27;20407;-48
2023/01/23 11:21:21;;;;;;;0.30;0.30;;;;;;;18.34;42.14;103199.88;5097468;28;20072;-48
2023/01/23 11:23:46;;;;;;;0.30;0.30;;;;;;;18.34;42.09;103204.56;5098481;28;20234;-47
2023/01/23 11:26:32;;;;;;;0.30;0.30;;;;;;;18.35;41.90;103198.84;5116903;27;20516;-49
2023/01/23 11:28:59;;;;;;;0.30;0.30;;;;;;;18.34;42.02;103197.13;5101696;28;20499;-48
2023/01/23 11:31:26;;;;;;;0.30;0.30;;;;;;;18.35;42.17;103200.72;5118202;27;20050;-47
2023/01/23 11:34:11;;;;;;;0.30;0.30;;;;;;;18.35;42.22;103204.38;5115714;27;20043;-46
2023/01/23 11:37:02;;;;;;;0.30;0.30;;;;;;;18.35;41.99;103203.50;5101939;27;20053;-47